createdAt,value
2023-02-16T00:02:34.342Z,-0.06
2023-02-16T00:07:57.961Z,0.01
2023-02-16T00:13:47.222Z,-0.09
2023-02-16T00:19:35.988Z,-0.03
2023-02-16T00:24:57.028Z,-0.09
2023-02-16T00:30:20.991Z,-0.02
2023-02-16T00:35:44.976Z,-0.20
2023-02-16T00:41:26.290Z,-0.41
2023-02-16T00:46:48.148Z,-0.22
2023-02-16T00:52:33.356Z,-0.14
2023-02-16T00:58:20.068Z,-0.02
2023-02-16T01:03:41.360Z,-0.08
2023-02-16T01:09:31.547Z,0.03
2023-02-16T01:14:55.195Z,-0.02
2023-02-16T01:20:19.975Z,0.18
2023-02-16T01:25:41.955Z,0.23
2023-02-16T01:31:03.011Z,0.01
2023-02-16T01:36:29.751Z,-0.04
2023-02-16T01:42:13.711Z,-0.15
2023-02-16T01:47:45.032Z,-0.10
2023-02-16T01:53:19.820Z,-0.26
2023-02-16T01:58:45.802Z,-0.40
2023-02-16T02:04:45.517Z,-0.40
2023-02-16T02:10:14.595Z,-0.23
2023-02-16T02:15:35.616Z,-0.38
2023-02-16T02:21:34.342Z,-0.50
2023-02-16T02:27:16.300Z,-0.47
2023-02-16T02:33:19.309Z,-0.48
2023-02-16T02:38:46.403Z,-0.44
2023-02-16T02:44:08.925Z,-0.60
2023-02-16T02:49:29.803Z,-0.84
2023-02-16T02:55:09.482Z,-0.95
2023-02-16T03:00:41.951Z,-0.83
2023-02-16T03:06:09.217Z,-0.60
2023-02-16T03:11:48.829Z,-0.67
2023-02-16T03:17:42.432Z,-0.75
2023-02-16T03:23:24.156Z,-0.64
2023-02-16T03:29:04.260Z,-0.67
2023-02-16T03:34:26.271Z,-0.85
2023-02-16T03:40:05.828Z,-0.93
2023-02-16T03:45:27.543Z,-1.08
2023-02-16T03:50:48.766Z,-1.00
2023-02-16T03:56:09.329Z,-1.01
2023-02-16T04:01:30.185Z,-1.18
2023-02-16T04:06:50.846Z,-1.33
2023-02-16T04:12:31.582Z,-1.28
2023-02-16T04:17:54.000Z,-1.24
2023-02-16T04:23:14.750Z,-1.09
2023-02-16T04:28:35.374Z,-0.95
2023-02-16T04:33:56.010Z,-0.82
2023-02-16T04:39:16.691Z,-0.73
2023-02-16T04:44:37.421Z,-0.62
2023-02-16T04:49:58.075Z,-0.58
2023-02-16T04:55:18.878Z,-0.60
2023-02-16T05:00:39.641Z,-0.51
2023-02-16T05:06:00.434Z,-0.64
2023-02-16T05:11:39.491Z,-0.75
2023-02-16T05:17:00.122Z,-0.73
2023-02-16T05:22:21.058Z,-1.05
2023-02-16T05:27:42.136Z,-1.14
2023-02-16T05:33:02.736Z,-1.06
2023-02-16T05:38:23.517Z,-1.11
2023-02-16T05:43:45.219Z,-1.05
2023-02-16T05:49:08.958Z,-1.00
2023-02-16T05:54:30.191Z,-1.13
2023-02-16T05:59:50.856Z,-1.28
2023-02-16T06:05:11.625Z,-1.32
2023-02-16T06:10:32.374Z,-1.34
2023-02-16T06:15:55.996Z,-1.27
2023-02-16T06:21:16.895Z,-1.34
2023-02-16T06:26:37.784Z,-1.31
2023-02-16T06:31:59.165Z,-1.35
2023-02-16T06:37:20.255Z,-1.44
2023-02-16T06:42:42.384Z,-1.43
2023-02-16T06:48:03.215Z,-1.32
2023-02-16T06:53:25.514Z,-1.36
2023-02-16T06:58:46.419Z,-1.37
2023-02-16T07:04:07.312Z,-1.32
2023-02-16T07:09:28.387Z,-1.30
2023-02-16T07:14:49.243Z,-1.11
2023-02-16T07:20:12.656Z,-0.81
2023-02-16T07:25:35.936Z,-0.53
2023-02-16T07:30:57.703Z,-0.44
2023-02-16T07:36:18.455Z,-0.41
2023-02-16T07:41:39.056Z,-0.39
2023-02-16T07:47:01.804Z,-0.39
2023-02-16T07:52:22.603Z,-0.26
2023-02-16T07:57:43.532Z,-0.37
2023-02-16T08:03:04.657Z,-0.31
2023-02-16T08:08:26.142Z,-0.26
2023-02-16T08:13:47.457Z,-0.06
2023-02-16T08:19:10.162Z,0.12
2023-02-16T08:24:34.132Z,0.28
2023-02-16T08:29:55.445Z,0.70
2023-02-16T08:35:15.985Z,1.40
2023-02-16T08:40:36.827Z,1.14
2023-02-16T08:45:57.622Z,1.07
2023-02-16T08:51:20.062Z,1.16
2023-02-16T08:56:45.839Z,1.30
2023-02-16T09:02:07.986Z,1.38
2023-02-16T09:07:29.397Z,1.47
2023-02-16T09:12:50.126Z,1.70
2023-02-16T09:18:12.634Z,1.75
2023-02-16T09:23:35.798Z,1.89
2023-02-16T09:28:58.809Z,1.91
2023-02-16T09:34:22.230Z,2.01
2023-02-16T09:39:43.260Z,2.18
2023-02-16T09:45:09.877Z,2.19
2023-02-16T09:50:55.099Z,2.29
2023-02-16T09:56:34.941Z,2.31
2023-02-16T10:02:21.828Z,2.34
2023-02-16T10:08:07.820Z,2.42
2023-02-16T10:13:44.045Z,2.57
2023-02-16T10:19:18.059Z,2.80
2023-02-16T10:25:02.953Z,3.10
2023-02-16T10:30:23.862Z,3.29
2023-02-16T10:35:50.233Z,3.21
2023-02-16T10:41:25.781Z,3.27
2023-02-16T10:46:52.437Z,3.54
2023-02-16T10:52:13.333Z,3.79
2023-02-16T10:57:34.172Z,4.13
2023-02-16T11:02:56.251Z,4.44
2023-02-16T11:08:17.560Z,4.70
2023-02-16T11:13:38.592Z,4.91
2023-02-16T11:19:00.804Z,5.15
2023-02-16T11:24:29.486Z,5.47
2023-02-16T11:29:53.567Z,5.75
2023-02-16T11:35:15.825Z,6.00
2023-02-16T11:40:37.467Z,6.25
2023-02-16T11:46:02.586Z,6.58
2023-02-16T11:51:34.830Z,6.91
2023-02-16T11:57:09.358Z,7.26
2023-02-16T12:02:50.336Z,7.49
2023-02-16T12:08:16.655Z,7.69
2023-02-16T12:13:37.683Z,8.02
2023-02-16T12:19:11.778Z,8.08
2023-02-16T12:24:57.637Z,8.10
2023-02-16T12:30:25.396Z,8.16
2023-02-16T12:35:56.952Z,8.29
2023-02-16T12:41:59.729Z,8.49
2023-02-16T12:47:47.818Z,8.69
2023-02-16T12:53:20.246Z,8.96
2023-02-16T12:58:46.552Z,9.08
2023-02-16T13:04:52.112Z,9.14
2023-02-16T13:10:40.057Z,9.25
2023-02-16T13:16:17.547Z,9.32
2023-02-16T13:21:54.211Z,9.30
2023-02-16T13:27:48.250Z,9.26
2023-02-16T13:33:14.252Z,9.25
2023-02-16T13:38:59.793Z,9.26
2023-02-16T13:44:26.317Z,9.27
2023-02-16T13:49:48.158Z,9.27
2023-02-16T13:55:22.459Z,9.33
2023-02-16T14:00:48.690Z,9.29
2023-02-16T14:06:34.535Z,8.97
2023-02-16T14:11:57.425Z,8.79
2023-02-16T14:17:23.898Z,8.66
2023-02-16T14:22:53.720Z,8.47
2023-02-16T14:28:29.900Z,8.42
2023-02-16T14:34:01.523Z,8.35
2023-02-16T14:39:23.535Z,8.39
2023-02-16T14:45:07.059Z,8.38
2023-02-16T14:50:41.272Z,8.41
2023-02-16T14:56:11.631Z,8.36
2023-02-16T15:01:39.508Z,8.33
2023-02-16T15:07:04.696Z,8.23
2023-02-16T15:12:30.791Z,8.14
2023-02-16T15:17:53.002Z,8.12
2023-02-16T15:23:47.588Z,8.05
2023-02-16T15:29:23.757Z,8.06
2023-02-16T15:34:46.267Z,8.03
2023-02-16T15:40:27.048Z,7.95
2023-02-16T15:45:52.733Z,7.85
2023-02-16T15:51:25.875Z,7.71
2023-02-16T15:56:52.667Z,7.93
2023-02-16T16:02:18.695Z,7.74
2023-02-16T16:07:41.774Z,7.52
2023-02-16T16:13:09.847Z,7.33
2023-02-16T16:18:46.638Z,7.19
2023-02-16T16:24:10.425Z,7.09
2023-02-16T16:29:44.885Z,6.97
2023-02-16T16:35:41.885Z,6.87
2023-02-16T16:41:04.220Z,6.80
2023-02-16T16:46:28.578Z,6.68
2023-02-16T16:51:53.574Z,6.63
2023-02-16T16:57:17.724Z,6.61
2023-02-16T17:02:38.951Z,6.56
2023-02-16T17:07:59.669Z,6.52
2023-02-16T17:13:21.414Z,6.46
2023-02-16T17:18:42.361Z,6.50
2023-02-16T17:24:03.154Z,6.45
2023-02-16T17:29:23.710Z,6.38
2023-02-16T17:34:44.711Z,6.30
2023-02-16T17:40:15.211Z,6.19
2023-02-16T17:45:35.912Z,6.17
2023-02-16T17:50:58.164Z,6.22
2023-02-16T17:56:21.732Z,6.29
2023-02-16T18:01:43.650Z,6.17
2023-02-16T18:07:04.427Z,6.04
2023-02-16T18:12:28.424Z,5.98
2023-02-16T18:17:49.398Z,5.93
2023-02-16T18:23:10.561Z,5.92
2023-02-16T18:28:33.780Z,5.93
2023-02-16T18:34:06.048Z,5.95
2023-02-16T18:39:26.780Z,5.86
2023-02-16T18:44:49.086Z,5.86
2023-02-16T18:50:10.120Z,5.84
2023-02-16T18:55:33.904Z,5.69
2023-02-16T19:00:54.885Z,5.55
2023-02-16T19:06:15.662Z,5.59
2023-02-16T19:11:36.488Z,5.57
2023-02-16T19:16:57.268Z,5.54
2023-02-16T19:22:17.971Z,5.58
2023-02-16T19:27:39.019Z,5.53
2023-02-16T19:33:00.132Z,5.58
2023-02-16T19:38:20.894Z,5.68
2023-02-16T19:43:42.510Z,5.59
2023-02-16T19:49:03.999Z,5.67
2023-02-16T19:54:25.228Z,5.67
2023-02-16T19:59:46.118Z,5.66
2023-02-16T20:05:09.661Z,5.67
2023-02-16T20:10:32.895Z,5.71
2023-02-16T20:15:53.720Z,5.69
2023-02-16T20:21:19.488Z,5.58
2023-02-16T20:26:43.902Z,5.60
2023-02-16T20:32:05.822Z,5.65
2023-02-16T20:37:26.804Z,5.68
2023-02-16T20:42:49.010Z,5.65
2023-02-16T20:48:12.428Z,5.66
2023-02-16T20:53:34.500Z,5.60
2023-02-16T20:58:57.122Z,5.68
2023-02-16T21:04:19.189Z,5.61
2023-02-16T21:09:40.149Z,5.57
2023-02-16T21:15:01.079Z,5.54
2023-02-16T21:20:22.030Z,5.52
2023-02-16T21:25:43.403Z,5.50
2023-02-16T21:31:06.132Z,5.59
2023-02-16T21:36:27.562Z,5.48
2023-02-16T21:41:48.695Z,5.54
2023-02-16T21:47:32.555Z,5.44
2023-02-16T21:52:54.212Z,5.48
2023-02-16T21:58:16.791Z,5.46
2023-02-16T22:03:37.858Z,5.49
2023-02-16T22:08:59.912Z,5.47
2023-02-16T22:14:20.945Z,5.39
2023-02-16T22:19:41.796Z,5.37
2023-02-16T22:25:03.022Z,5.41
2023-02-16T22:30:23.749Z,5.41
2023-02-16T22:35:44.533Z,5.51
2023-02-16T22:41:07.015Z,5.46
2023-02-16T22:46:29.676Z,5.47
2023-02-16T22:51:50.451Z,5.48
2023-02-16T22:57:11.120Z,5.49
2023-02-16T23:02:32.396Z,5.58
2023-02-16T23:07:52.937Z,5.59
2023-02-16T23:13:13.719Z,5.61
2023-02-16T23:18:35.327Z,5.70
2023-02-16T23:23:57.241Z,5.77
2023-02-16T23:29:18.444Z,5.90
2023-02-16T23:34:39.428Z,6.01
2023-02-16T23:40:00.173Z,6.06
2023-02-16T23:45:20.845Z,6.02
2023-02-16T23:50:41.547Z,5.95
2023-02-16T23:56:06.297Z,5.93
